Onweer radar Meer informatie blitzortung!


Regen radar Meer informatie rain snow radar



METAR rapporten vliegvelden

   
EHRD - Rotterdam The Hague Airport - Rotterdam, Netherlands
Afstand tot: NW 20 km
Gewijzigd: 22-08-2019 06:55
Helder  
Helder  
   Wind: ZZO 7.4 km/h
Wind: ZZO 7.4 km/h
Temperatuur: 12°C
Dauwpunt: 10°C
Vochtigheid: 88%
Barometer: 1024 hPa
Bewolking: Helder
Zicht: meer dan 10 km
Bewolking: Helder
EHRD 220455Z AUTO 16004KT 9999 NCD 12/10 Q1024 NOSIG
EHAM - Amsterdam Airport Schiphol - Haarlemmermeer, Netherlands
Afstand tot: NNO 55 km
Gewijzigd: 22-08-2019 07:25
Helder  
Helder  
   Wind: Zuiden 7.4 km/h
Wind: Zuiden 7.4 km/h
Temperatuur: 12°C
Dauwpunt: 10°C
Vochtigheid: 88%
Barometer: 1024 hPa
Zicht: meer dan 10 km
Bewolking: Helder
EHAM 220525Z 17004KT CAVOK 12/10 Q1024 NOSIG
EHKD - Vliegveld de Kooy - Den Helder, Netherlands
Afstand tot: N 123 km
Gewijzigd: 22-08-2019 07:25
Bewolking  
Bewolking  
   Wind: Zuiden 11.1 km/h
Wind: Zuiden 11.1 km/h
Temperatuur: 13°C
Dauwpunt: 10°C
Vochtigheid: 82%
Barometer: 1024 hPa
Bewolking: Bewolking
Zicht: meer dan 10 km
Bewolking: Bewolking 15000 ft
EHKD 220525Z AUTO 17006KT 9999 OVC150 13/10 Q1024 BLU 18005KT CAVOK
EBAW - Vliegbasis Leeuwarden - Leeuwarden, Netherlands
Afstand tot: NNO 173 km
Gewijzigd: 22-08-2019 07:20
Shallow Fog, Gedeeltelijk bewolkt  
Shallow Fog, Gedeeltelijk bewolkt  
   Wind: varieert 1.9 km/h
Wind: varieert 1.9 km/h
Temperatuur: 10°C
Dauwpunt: 10°C
Vochtigheid: 100%
Barometer: 1025 hPa
Bewolking: Gedeeltelijk bewolkt
Zicht: meer dan 10 km
Bewolking: Gedeeltelijk bewolkt
EBAW 220520Z VRB01KT 9999 MIFG NSC 10/10 Q1025 NOSIG
EHEH - Vliegbasis Eindhoven - Eindhoven, Netherlands
Afstand tot: ZO 65 km
Gewijzigd: 22-08-2019 07:25
Helder  
Helder  
   Wind: Zuiden 5.6 km/h
Wind: Zuiden 5.6 km/h
Temperatuur: 12°C
Dauwpunt: 9°C
Vochtigheid: 82%
Barometer: 1025 hPa
Bewolking: Helder
Zicht: meer dan 10 km
Bewolking: Helder
EHEH 220525Z AUTO 17003KT 150V230 9999 NCD 12/09 Q1025 BLU VRB03KT 9999 MIFG NSC BECMG 16005KT
EHBK - Maastricht Aachen Airport - Meerssen, Netherlands
Afstand tot: ZO 128 km
Gewijzigd: 22-08-2019 07:25
Helder  
Helder  
   Wind: Zuiden 5.6 km/h
Wind: Zuiden 5.6 km/h
Temperatuur: 12°C
Dauwpunt: 9°C
Vochtigheid: 82%
Barometer: 1025 hPa
Bewolking: Helder
Zicht: meer dan 10 km
Bewolking: Helder
EHBK 220525Z AUTO 18003KT 9999 NCD 12/09 Q1025 NOSIG

Script ontwikkeld door  Saratoga-weather.org Aangepast voor de template door  Weerstation Leuven

U vindt ons ook hier:

UK Metoffice

Weather Underground

AWEKAS